Time;durP1;ratioP1;P1;durP2;ratioP2;P2;SDS_P1;SDS_P2;PMS_P1;PMS_P2;Temp;Humidity;BMP_temperature;BMP_pressure;BME280_temperature;BME280_humidity;BME280_pressure;Samples;Min_cycle;Max_cycle;Signal;HPM_P1;HPM_P2
2022/01/10 00:02:06;;;;;;;98.05;45.17;;;;;;;;;;6254390;28;20028;-87
2022/01/10 00:05:07;;;;;;;103.78;47.22;;;;;;;;;;6267485;28;20429;-87
2022/01/10 00:08:07;;;;;;;93.25;43.67;;;;;;;;;;6268278;28;20520;-87
2022/01/10 00:11:08;;;;;;;97.25;42.30;;;;;;;;;;6245182;28;20029;-87
2022/01/10 00:14:08;;;;;;;96.78;44.22;;;;;;;;;;6241995;28;20040;-87
2022/01/10 00:17:08;;;;;;;96.93;46.67;;;;;;;;;;6265701;28;20024;-87
2022/01/10 00:20:10;;;;;;;100.47;46.53;;;;;;;;;;6266507;28;20074;-87
2022/01/10 00:23:11;;;;;;;97.38;43.80;;;;;;;;;;6250572;28;20021;-87
2022/01/10 00:26:11;;;;;;;92.68;40.33;;;;;;;;;;6247893;28;20060;-86
2022/01/10 00:29:11;;;;;;;93.35;40.55;;;;;;;;;;6242993;28;20020;-86
2022/01/10 00:32:12;;;;;;;88.68;40.97;;;;;;;;;;6241633;28;20022;-87
2022/01/10 00:35:12;;;;;;;99.40;39.65;;;;;;;;;;6242038;28;20025;-88
2022/01/10 00:38:13;;;;;;;92.07;41.38;;;;;;;;;;6241978;28;20064;-87
2022/01/10 00:41:13;;;;;;;97.93;41.45;;;;;;;;;;6241642;28;20825;-87
2022/01/10 00:44:14;;;;;;;90.35;39.40;;;;;;;;;;6245744;28;20032;-87
2022/01/10 00:47:14;;;;;;;98.80;42.25;;;;;;;;;;6248029;28;20029;-87
2022/01/10 00:50:15;;;;;;;89.60;41.65;;;;;;;;;;6241312;28;20022;-88
2022/01/10 00:53:15;;;;;;;97.50;42.03;;;;;;;;;;6241068;28;20381;-87
2022/01/10 00:56:16;;;;;;;95.57;42.63;;;;;;;;;;6248502;28;20061;-87
2022/01/10 00:59:16;;;;;;;109.65;44.08;;;;;;;;;;6268355;28;20108;-87
2022/01/10 01:02:16;;;;;;;94.72;43.13;;;;;;;;;;6264504;28;20025;-87
2022/01/10 01:05:18;;;;;;;97.75;41.10;;;;;;;;;;6266526;28;20021;-87
2022/01/10 01:08:18;;;;;;;93.07;45.35;;;;;;;;;;6265873;28;20033;-88
2022/01/10 01:15:18;;;;;;;97.03;44.28;;;;;;;;;;6247778;28;20106;-87
2022/01/10 01:18:16;;;;;;;93.00;42.50;;;;;;;;;;6240856;28;20417;-87
2022/01/10 01:24:35;;;;;;;101.32;44.47;;;;;;;;;;6248315;28;20037;-87
2022/01/10 01:27:36;;;;;;;105.57;44.15;;;;;;;;;;6251362;28;20024;-87
2022/01/10 01:30:36;;;;;;;109.85;44.72;;;;;;;;;;6245347;28;20393;-87
2022/01/10 01:33:37;;;;;;;101.53;44.22;;;;;;;;;;6244609;28;20495;-87
2022/01/10 01:36:37;;;;;;;99.65;43.80;;;;;;;;;;6245361;28;20025;-87
2022/01/10 01:39:38;;;;;;;89.43;42.78;;;;;;;;;;6266086;28;20049;-87
2022/01/10 01:42:42;;;;;;;90.55;40.33;;;;;;;;;;6271358;28;20036;-87
2022/01/10 01:45:47;;;;;;;81.97;37.30;;;;;;;;;;6254610;28;20072;-87
2022/01/10 01:48:48;;;;;;;88.70;37.72;;;;;;;;;;6246328;28;20385;-87
2022/01/10 01:51:48;;;;;;;57.57;28.47;;;;;;;;;;6263859;28;20021;-87
2022/01/10 01:54:49;;;;;;;71.57;31.45;;;;;;;;;;6247750;28;20282;-87
2022/01/10 01:57:49;;;;;;;79.97;36.83;;;;;;;;;;6265766;28;20040;-86
2022/01/10 02:00:49;;;;;;;86.80;36.97;;;;;;;;;;6261720;28;20251;-87
2022/01/10 02:03:50;;;;;;;85.85;36.38;;;;;;;;;;6249402;28;20477;-87
2022/01/10 02:06:50;;;;;;;80.47;35.35;;;;;;;;;;6246270;28;20029;-86
2022/01/10 02:09:50;;;;;;;80.82;36.28;;;;;;;;;;6246235;28;20076;-86
2022/01/10 02:12:50;;;;;;;76.20;35.17;;;;;;;;;;6261294;28;20039;-87
2022/01/10 02:15:59;;;;;;;79.18;33.47;;;;;;;;;;6246437;28;20029;-87
2022/01/10 02:18:59;;;;;;;83.70;35.53;;;;;;;;;;6246428;28;20396;-87
2022/01/10 02:21:59;;;;;;;79.47;35.40;;;;;;;;;;6250562;28;20101;-86
2022/01/10 02:24:59;;;;;;;80.72;35.72;;;;;;;;;;6269428;28;20029;-86
2022/01/10 02:28:00;;;;;;;84.63;36.70;;;;;;;;;;6254319;28;20040;-86
2022/01/10 02:31:00;;;;;;;79.75;38.40;;;;;;;;;;6244943;28;20040;-86
2022/01/10 02:34:01;;;;;;;71.38;33.17;;;;;;;;;;6260452;28;20033;-86
2022/01/10 02:37:01;;;;;;;80.05;34.05;;;;;;;;;;6269503;28;20040;-86
2022/01/10 02:40:06;;;;;;;76.63;32.90;;;;;;;;;;6268771;28;20460;-86
2022/01/10 02:43:07;;;;;;;82.93;36.22;;;;;;;;;;6268453;28;20032;-86
2022/01/10 02:46:08;;;;;;;54.35;27.52;;;;;;;;;;6249091;28;20124;-86
2022/01/10 02:49:12;;;;;;;97.13;37.13;;;;;;;;;;6246983;28;20021;-86
2022/01/10 02:52:12;;;;;;;86.38;33.90;;;;;;;;;;6268446;28;20020;-86
2022/01/10 02:55:13;;;;;;;74.63;33.40;;;;;;;;;;6249175;28;20078;-86
2022/01/10 02:58:13;;;;;;;81.35;35.00;;;;;;;;;;6267839;28;20365;-86
2022/01/10 03:01:14;;;;;;;84.97;36.38;;;;;;;;;;6260403;28;20465;-86
2022/01/10 03:04:15;;;;;;;89.00;36.08;;;;;;;;;;6247491;28;20048;-86
2022/01/10 03:07:16;;;;;;;78.80;35.03;;;;;;;;;;6270258;28;20039;-86
2022/01/10 03:10:16;;;;;;;78.50;34.40;;;;;;;;;;6257686;28;20389;-85
2022/01/10 03:13:16;;;;;;;75.65;35.65;;;;;;;;;;6268387;28;20017;-85
2022/01/10 03:16:17;;;;;;;88.13;37.78;;;;;;;;;;6269422;28;20457;-85
2022/01/10 03:19:17;;;;;;;85.00;35.58;;;;;;;;;;6267782;28;20112;-85
2022/01/10 03:22:17;;;;;;;87.72;37.58;;;;;;;;;;6259852;28;20534;-85
2022/01/10 03:25:18;;;;;;;77.32;34.20;;;;;;;;;;6256710;28;20021;-85
2022/01/10 03:28:18;;;;;;;81.20;35.75;;;;;;;;;;6250160;28;20108;-84
2022/01/10 03:31:19;;;;;;;82.32;34.40;;;;;;;;;;6243028;28;20063;-84
2022/01/10 03:34:19;;;;;;;84.63;38.08;;;;;;;;;;6242629;28;20021;-85
2022/01/10 03:37:19;;;;;;;80.22;36.22;;;;;;;;;;6243421;28;20029;-85
2022/01/10 03:40:19;;;;;;;77.57;37.28;;;;;;;;;;6245119;28;20037;-84
2022/01/10 03:43:20;;;;;;;85.25;40.22;;;;;;;;;;6244745;28;20018;-84
2022/01/10 03:46:20;;;;;;;85.20;35.58;;;;;;;;;;6254828;28;20434;-84
2022/01/10 03:49:21;;;;;;;83.40;37.40;;;;;;;;;;6269320;28;20025;-84
2022/01/10 03:52:22;;;;;;;77.88;34.15;;;;;;;;;;6270116;28;20475;-84
2022/01/10 03:55:22;;;;;;;79.38;35.83;;;;;;;;;;6268323;28;20020;-84
2022/01/10 03:58:23;;;;;;;84.05;35.00;;;;;;;;;;6268897;28;20048;-83
2022/01/10 04:01:23;;;;;;;89.53;42.08;;;;;;;;;;6258390;28;20067;-83
2022/01/10 04:04:24;;;;;;;90.75;39.35;;;;;;;;;;6253543;28;20112;-83
2022/01/10 04:07:24;;;;;;;83.15;40.47;;;;;;;;;;6269581;28;20078;-83
2022/01/10 04:10:25;;;;;;;97.10;40.78;;;;;;;;;;6253322;28;20052;-83
2022/01/10 04:13:25;;;;;;;81.20;37.33;;;;;;;;;;6244111;28;20032;-83
2022/01/10 04:16:25;;;;;;;86.68;39.78;;;;;;;;;;6244850;28;20112;-83
2022/01/10 04:19:25;;;;;;;87.03;38.33;;;;;;;;;;6245002;28;20029;-83
2022/01/10 04:22:26;;;;;;;79.75;38.17;;;;;;;;;;6253137;28;20024;-83
2022/01/10 04:25:26;;;;;;;95.20;42.63;;;;;;;;;;6248029;28;20083;-83
2022/01/10 04:28:27;;;;;;;86.60;40.00;;;;;;;;;;6250286;28;20028;-83
2022/01/10 04:31:27;;;;;;;88.25;39.00;;;;;;;;;;6244614;28;20022;-83
2022/01/10 04:34:27;;;;;;;80.82;36.72;;;;;;;;;;6244969;28;20140;-83
2022/01/10 04:37:27;;;;;;;92.70;41.07;;;;;;;;;;6244722;28;20025;-83
2022/01/10 04:40:28;;;;;;;90.03;40.92;;;;;;;;;;6243267;28;20033;-83
2022/01/10 04:43:28;;;;;;;74.72;38.17;;;;;;;;;;6242901;28;20440;-83
2022/01/10 04:46:28;;;;;;;81.47;40.03;;;;;;;;;;6245401;28;20075;-83
2022/01/10 04:49:37;;;;;;;95.90;41.10;;;;;;;;;;6248338;28;20033;-83
2022/01/10 04:52:37;;;;;;;85.78;40.78;;;;;;;;;;6278374;28;20044;-83
2022/01/10 04:55:38;;;;;;;74.57;38.47;;;;;;;;;;6248536;28;20494;-83
2022/01/10 04:58:39;;;;;;;93.00;39.40;;;;;;;;;;6273193;28;20031;-83
2022/01/10 05:01:40;;;;;;;82.28;40.58;;;;;;;;;;6258806;28;20048;-84
2022/01/10 05:04:40;;;;;;;93.70;40.47;;;;;;;;;;6249291;28;20025;-83
2022/01/10 05:07:40;;;;;;;95.15;40.03;;;;;;;;;;6249394;28;20021;-83
2022/01/10 05:10:42;;;;;;;100.57;42.35;;;;;;;;;;6255439;28;20021;-83
2022/01/10 05:13:42;;;;;;;97.82;44.60;;;;;;;;;;6273515;28;20476;-83
2022/01/10 05:16:44;;;;;;;99.03;46.45;;;;;;;;;;6272847;28;20021;-83
2022/01/10 05:19:44;;;;;;;103.10;44.90;;;;;;;;;;6272567;28;20560;-83
2022/01/10 05:22:44;;;;;;;81.35;38.80;;;;;;;;;;6257716;28;20021;-84
2022/01/10 05:25:46;;;;;;;88.30;40.50;;;;;;;;;;6267982;28;20021;-84
2022/01/10 05:28:46;;;;;;;91.10;44.05;;;;;;;;;;6247115;28;20382;-84
2022/01/10 05:31:46;;;;;;;107.15;45.85;;;;;;;;;;6248551;28;20025;-84
2022/01/10 05:34:47;;;;;;;91.23;41.00;;;;;;;;;;6249393;28;20052;-84
2022/01/10 05:37:47;;;;;;;99.80;47.27;;;;;;;;;;6272585;28;20106;-84
2022/01/10 05:40:47;;;;;;;102.77;45.77;;;;;;;;;;6271963;28;20044;-84
2022/01/10 05:43:48;;;;;;;104.47;44.70;;;;;;;;;;6263864;28;20032;-84
2022/01/10 05:46:48;;;;;;;99.57;43.77;;;;;;;;;;6260160;28;20030;-85
2022/01/10 05:49:49;;;;;;;93.10;43.53;;;;;;;;;;6253934;28;20052;-85
2022/01/10 05:52:49;;;;;;;99.75;43.40;;;;;;;;;;6295351;28;20017;-84
2022/01/10 05:55:50;;;;;;;86.93;42.50;;;;;;;;;;6283133;28;20017;-85
2022/01/10 05:58:50;;;;;;;88.23;40.17;;;;;;;;;;6270558;28;20377;-85
2022/01/10 06:01:50;;;;;;;90.75;40.10;;;;;;;;;;6257075;28;20017;-85
2022/01/10 06:04:51;;;;;;;91.45;39.35;;;;;;;;;;6247663;28;20029;-85
2022/01/10 06:07:51;;;;;;;96.18;41.40;;;;;;;;;;6247422;28;20545;-85
2022/01/10 06:10:51;;;;;;;89.97;41.97;;;;;;;;;;6247974;28;20018;-85
2022/01/10 06:13:51;;;;;;;103.73;45.87;;;;;;;;;;6245929;28;20029;-85
2022/01/10 06:16:52;;;;;;;119.13;50.13;;;;;;;;;;6258360;28;20083;-85
2022/01/10 06:19:52;;;;;;;116.32;48.30;;;;;;;;;;6243579;28;20034;-85
2022/01/10 06:22:52;;;;;;;96.33;46.17;;;;;;;;;;6250425;28;20029;-84
2022/01/10 06:25:53;;;;;;;90.63;42.00;;;;;;;;;;6261180;28;20047;-85
2022/01/10 06:28:53;;;;;;;95.67;44.33;;;;;;;;;;6296777;28;20027;-85
2022/01/10 06:31:53;;;;;;;99.20;45.10;;;;;;;;;;6294806;28;20013;-84
2022/01/10 06:34:53;;;;;;;83.27;42.50;;;;;;;;;;6259115;28;20013;-84
2022/01/10 06:37:54;;;;;;;88.97;42.73;;;;;;;;;;6255832;28;20055;-84
2022/01/10 06:40:54;;;;;;;96.37;40.00;;;;;;;;;;6266542;28;20025;-84
2022/01/10 06:43:54;;;;;;;97.45;39.78;;;;;;;;;;6269962;28;20055;-84
2022/01/10 06:46:55;;;;;;;84.47;38.57;;;;;;;;;;6259358;28;20025;-84
2022/01/10 06:49:55;;;;;;;73.77;37.13;;;;;;;;;;6252736;28;20468;-84
2022/01/10 06:52:57;;;;;;;80.45;36.90;;;;;;;;;;6259805;28;20099;-84
2022/01/10 06:55:57;;;;;;;82.32;41.30;;;;;;;;;;6269301;28;20056;-84
2022/01/10 06:58:57;;;;;;;94.77;40.63;;;;;;;;;;6265907;28;20530;-84
2022/01/10 07:01:58;;;;;;;56.17;22.87;;;;;;;;;;6252385;28;20034;-83
2022/01/10 07:04:58;;;;;;;83.77;39.23;;;;;;;;;;6253517;28;20021;-83
2022/01/10 07:07:58;;;;;;;96.73;43.57;;;;;;;;;;6259699;28;20026;-83
2022/01/10 07:10:59;;;;;;;111.07;48.72;;;;;;;;;;6242017;28;20028;-84
2022/01/10 07:13:59;;;;;;;100.50;45.58;;;;;;;;;;6243185;28;20021;-84
2022/01/10 07:16:59;;;;;;;111.13;44.27;;;;;;;;;;6256637;28;20064;-84
2022/01/10 07:20:00;;;;;;;97.47;45.80;;;;;;;;;;6260350;28;20081;-82
2022/01/10 07:23:00;;;;;;;82.88;39.92;;;;;;;;;;6264227;28;20032;-82
2022/01/10 07:26:00;;;;;;;80.28;37.30;;;;;;;;;;6269610;28;20223;-82
2022/01/10 07:29:02;;;;;;;68.45;33.85;;;;;;;;;;6244824;28;20022;-81
2022/01/10 07:32:02;;;;;;;78.78;35.88;;;;;;;;;;6259757;28;20035;-83
2022/01/10 07:35:02;;;;;;;74.28;34.15;;;;;;;;;;6262283;28;20483;-82
2022/01/10 07:38:03;;;;;;;75.95;35.63;;;;;;;;;;6247769;28;20053;-82
2022/01/10 07:41:04;;;;;;;75.43;35.97;;;;;;;;;;6255891;28;20036;-82
2022/01/10 07:44:04;;;;;;;74.05;34.50;;;;;;;;;;6257581;28;20029;-83
2022/01/10 07:47:04;;;;;;;76.07;33.58;;;;;;;;;;6245015;28;20013;-83
2022/01/10 07:50:05;;;;;;;58.10;30.05;;;;;;;;;;6244705;28;20139;-83
2022/01/10 07:53:06;;;;;;;67.70;32.15;;;;;;;;;;6244343;28;20140;-82
2022/01/10 07:56:06;;;;;;;65.38;31.60;;;;;;;;;;6248500;28;20021;-82
2022/01/10 07:59:07;;;;;;;57.42;30.55;;;;;;;;;;6267579;28;20397;-82
2022/01/10 08:02:08;;;;;;;62.28;31.13;;;;;;;;;;6253708;28;20035;-82
2022/01/10 08:05:09;;;;;;;62.50;31.33;;;;;;;;;;6254897;28;20100;-82
2022/01/10 08:08:09;;;;;;;63.45;33.17;;;;;;;;;;6258986;28;20035;-82
2022/01/10 08:11:09;;;;;;;63.55;29.42;;;;;;;;;;6254832;28;20089;-83
2022/01/10 08:14:10;;;;;;;63.33;32.90;;;;;;;;;;6255215;28;20024;-83
2022/01/10 08:17:10;;;;;;;56.30;27.67;;;;;;;;;;6267352;28;20484;-83
2022/01/10 08:20:11;;;;;;;70.18;35.35;;;;;;;;;;6258643;28;20108;-84
2022/01/10 08:23:12;;;;;;;65.45;31.92;;;;;;;;;;6253728;28;20028;-84
2022/01/10 08:26:12;;;;;;;55.53;30.77;;;;;;;;;;6259029;28;20476;-84
2022/01/10 08:29:12;;;;;;;63.67;30.80;;;;;;;;;;6272006;28;20291;-84
2022/01/10 08:32:13;;;;;;;60.28;32.15;;;;;;;;;;6255108;28;20499;-85
2022/01/10 08:35:13;;;;;;;61.80;29.55;;;;;;;;;;6247379;28;20021;-85
2022/01/10 08:38:13;;;;;;;55.50;29.17;;;;;;;;;;6252658;28;20123;-85
2022/01/10 08:41:13;;;;;;;58.47;27.63;;;;;;;;;;6261957;28;20044;-85
2022/01/10 08:44:15;;;;;;;64.00;33.35;;;;;;;;;;6252056;28;20536;-85
2022/01/10 08:47:16;;;;;;;61.28;29.35;;;;;;;;;;6266199;28;20572;-85
2022/01/10 08:50:17;;;;;;;64.50;30.70;;;;;;;;;;6267496;28;20017;-85
2022/01/10 08:53:17;;;;;;;77.30;35.60;;;;;;;;;;6271257;28;20112;-85
2022/01/10 08:56:17;;;;;;;67.50;30.75;;;;;;;;;;6278121;28;20078;-85
2022/01/10 08:59:18;;;;;;;62.42;32.22;;;;;;;;;;6271206;28;20116;-85
2022/01/10 09:02:18;;;;;;;59.40;29.52;;;;;;;;;;6263048;28;20032;-85
2022/01/10 09:05:19;;;;;;;69.20;35.97;;;;;;;;;;6272529;28;20013;-86
2022/01/10 09:08:19;;;;;;;56.08;31.27;;;;;;;;;;6271512;28;20048;-85
2022/01/10 09:11:19;;;;;;;63.47;32.28;;;;;;;;;;6252827;28;20017;-86
2022/01/10 09:14:21;;;;;;;61.00;31.48;;;;;;;;;;6258378;28;20071;-86
2022/01/10 09:17:21;;;;;;;69.80;37.10;;;;;;;;;;6252846;28;20021;-86
2022/01/10 09:20:21;;;;;;;68.45;36.15;;;;;;;;;;6255117;28;20028;-86
2022/01/10 09:23:22;;;;;;;65.32;35.58;;;;;;;;;;6249127;28;20022;-87
2022/01/10 09:26:23;;;;;;;65.95;31.38;;;;;;;;;;6250615;28;20033;-86
2022/01/10 09:29:23;;;;;;;61.92;27.90;;;;;;;;;;6272502;28;20027;-85
2022/01/10 09:32:24;;;;;;;70.38;30.23;;;;;;;;;;6265939;28;20156;-86
2022/01/10 09:35:24;;;;;;;41.83;20.08;;;;;;;;;;6246061;28;20385;-86
2022/01/10 09:38:24;;;;;;;50.45;26.45;;;;;;;;;;6246015;28;20052;-86
2022/01/10 09:41:25;;;;;;;57.42;25.98;;;;;;;;;;6247280;28;20161;-87
2022/01/10 09:44:26;;;;;;;41.35;20.73;;;;;;;;;;6251742;28;20021;-86
2022/01/10 09:47:26;;;;;;;39.10;18.52;;;;;;;;;;6270477;28;20051;-86
2022/01/10 09:50:26;;;;;;;38.90;20.48;;;;;;;;;;6267189;28;20100;-86
2022/01/10 09:53:27;;;;;;;41.00;20.25;;;;;;;;;;6271205;28;20078;-86
2022/01/10 09:56:28;;;;;;;37.97;16.13;;;;;;;;;;6259802;28;20033;-86
2022/01/10 09:59:29;;;;;;;41.25;16.42;;;;;;;;;;6254316;28;20108;-86
2022/01/10 10:02:33;;;;;;;34.60;20.20;;;;;;;;;;6262174;28;20069;-86
2022/01/10 10:05:34;;;;;;;42.92;19.10;;;;;;;;;;6270474;28;20028;-86
2022/01/10 10:08:37;;;;;;;33.80;16.80;;;;;;;;;;6255402;28;20172;-86
2022/01/10 10:11:48;;;;;;;37.45;20.55;;;;;;;;;;6256650;28;20420;-86
2022/01/10 10:14:50;;;;;;;37.67;18.50;;;;;;;;;;6249575;28;20381;-86
2022/01/10 10:17:50;;;;;;;38.75;18.92;;;;;;;;;;6250660;28;20457;-86
2022/01/10 10:20:50;;;;;;;34.03;15.82;;;;;;;;;;6251242;28;20032;-86
2022/01/10 10:23:51;;;;;;;32.55;14.88;;;;;;;;;;6247153;28;20083;-86
2022/01/10 10:26:52;;;;;;;39.83;18.20;;;;;;;;;;6255587;28;20029;-86
2022/01/10 10:29:52;;;;;;;38.95;18.45;;;;;;;;;;6262789;28;20031;-86
2022/01/10 10:32:52;;;;;;;41.10;18.65;;;;;;;;;;6246024;28;20510;-86
2022/01/10 10:35:56;;;;;;;36.55;14.57;;;;;;;;;;6258074;28;20100;-86
2022/01/10 10:38:58;;;;;;;35.05;17.02;;;;;;;;;;6251723;28;20056;-86
2022/01/10 10:42:00;;;;;;;36.22;13.70;;;;;;;;;;6259998;28;20412;-86
2022/01/10 10:45:02;;;;;;;;;;;;;;;;;;6248254;28;20028;-86
2022/01/10 10:48:06;;;;;;;32.75;14.95;;;;;;;;;;6254278;28;19960;-86
2022/01/10 10:51:06;;;;;;;34.47;15.88;;;;;;;;;;6251906;28;20500;-86
2022/01/10 10:54:12;;;;;;;32.17;13.60;;;;;;;;;;6254912;28;20045;-86
2022/01/10 10:57:14;;;;;;;30.90;14.18;;;;;;;;;;6247187;28;20063;-86
2022/01/10 11:00:15;;;;;;;;;;;;;;;;;;6259892;28;20053;-86
2022/01/10 11:03:18;;;;;;;25.58;13.68;;;;;;;;;;6266167;28;19909;-86
2022/01/10 11:06:18;;;;;;;31.35;14.70;;;;;;;;;;6250219;28;20044;-86
2022/01/10 11:09:19;;;;;;;30.35;12.85;;;;;;;;;;6243753;28;20018;-86
2022/01/10 11:12:23;;;;;;;34.78;14.80;;;;;;;;;;6263647;28;20028;-86
2022/01/10 11:15:23;;;;;;;32.58;15.05;;;;;;;;;;6266090;28;20025;-86
2022/01/10 11:18:24;;;;;;;24.88;12.88;;;;;;;;;;6265475;28;20489;-86
2022/01/10 11:21:25;;;;;;;29.45;12.48;;;;;;;;;;6262431;28;20515;-87
2022/01/10 11:24:46;;;;;;;21.60;11.25;;;;;;;;;;6266907;28;20386;-87
2022/01/10 11:27:47;;;;;;;25.70;11.82;;;;;;;;;;6247632;28;20026;-86
2022/01/10 11:30:49;;;;;;;24.60;11.45;;;;;;;;;;6244177;28;20461;-87
2022/01/10 11:33:50;;;;;;;28.25;13.07;;;;;;;;;;6246021;28;20057;-87
2022/01/10 11:36:50;;;;;;;25.75;11.90;;;;;;;;;;6244447;28;20044;-87
2022/01/10 11:39:50;;;;;;;23.10;11.05;;;;;;;;;;6246003;28;20048;-86
2022/01/10 11:42:58;;;;;;;20.13;9.45;;;;;;;;;;6244473;28;20026;-87
2022/01/10 11:46:05;;;;;;;18.52;8.63;;;;;;;;;;6244069;28;20100;-86
2022/01/10 11:49:09;;;;;;;25.20;11.55;;;;;;;;;;6244211;28;20025;-87
2022/01/10 11:52:11;;;;;;;24.80;9.35;;;;;;;;;;6283282;28;20025;-87
2022/01/10 11:55:11;;;;;;;;;;;;;;;;;;6292810;28;20020;-87
2022/01/10 11:58:16;;;;;;;18.77;9.80;;;;;;;;;;6271458;28;19942;-87
2022/01/10 12:01:19;;;;;;;18.73;9.27;;;;;;;;;;6259124;28;20084;-87
2022/01/10 12:04:20;;;;;;;21.67;10.13;;;;;;;;;;6243719;28;20520;-87
2022/01/10 12:07:26;;;;;;;22.63;9.03;;;;;;;;;;6243659;28;20076;-87
2022/01/10 12:10:27;;;;;;;21.30;10.75;;;;;;;;;;6249530;28;20255;-87
2022/01/10 12:13:30;;;;;;;19.65;8.82;;;;;;;;;;6269852;28;20048;-86
2022/01/10 12:16:30;;;;;;;20.27;9.60;;;;;;;;;;6264819;28;20555;-87
2022/01/10 12:19:31;;;;;;;15.20;7.63;;;;;;;;;;6251216;28;20025;-87
2022/01/10 12:22:31;;;;;;;26.17;10.23;;;;;;;;;;6257578;28;20509;-87
2022/01/10 12:25:31;;;;;;;18.17;8.50;;;;;;;;;;6256703;28;20030;-87
2022/01/10 12:28:32;;;;;;;24.13;11.02;;;;;;;;;;6268933;28;20032;-87
2022/01/10 12:31:33;;;;;;;23.77;11.10;;;;;;;;;;6268099;28;20066;-87
2022/01/10 12:34:33;;;;;;;24.05;11.25;;;;;;;;;;6269866;28;20024;-87
2022/01/10 12:37:33;;;;;;;21.33;10.10;;;;;;;;;;6256901;28;20053;-87
2022/01/10 12:40:34;;;;;;;22.25;10.00;;;;;;;;;;6244682;28;20022;-87
2022/01/10 12:43:34;;;;;;;26.38;12.75;;;;;;;;;;6243549;28;20461;-87
2022/01/10 12:46:34;;;;;;;23.45;11.68;;;;;;;;;;6266332;28;20033;-87
2022/01/10 12:49:35;;;;;;;27.00;13.32;;;;;;;;;;6268119;28;20135;-87
2022/01/10 12:52:36;;;;;;;22.58;11.43;;;;;;;;;;6268301;28;20102;-87
2022/01/10 12:55:37;;;;;;;25.42;11.57;;;;;;;;;;6245231;28;20104;-88
2022/01/10 12:58:37;;;;;;;18.00;9.25;;;;;;;;;;6255204;28;20039;-87
2022/01/10 13:01:37;;;;;;;22.90;10.80;;;;;;;;;;6242724;28;20022;-87
2022/01/10 13:04:40;;;;;;;28.05;13.93;;;;;;;;;;6244306;28;20385;-87
2022/01/10 13:07:41;;;;;;;25.08;12.27;;;;;;;;;;6246273;28;20744;-87
2022/01/10 13:10:45;;;;;;;18.73;10.57;;;;;;;;;;6256940;28;20056;-87
2022/01/10 13:13:46;;;;;;;24.52;10.18;;;;;;;;;;6247168;28;20049;-87
2022/01/10 13:17:08;;;;;;;13.10;6.80;;;;;;;;;;6247838;28;20030;-88
2022/01/10 13:20:10;;;;;;;21.97;8.57;;;;;;;;;;6265783;28;20074;-87
2022/01/10 13:23:11;;;;;;;21.60;10.90;;;;;;;;;;6251288;28;20033;-88
2022/01/10 13:26:12;;;;;;;29.35;11.45;;;;;;;;;;6256481;28;20457;-88
2022/01/10 13:29:12;;;;;;;33.80;12.45;;;;;;;;;;6255750;28;20009;-87
2022/01/10 13:32:12;;;;;;;30.38;14.60;;;;;;;;;;6256987;28;20075;-88
2022/01/10 13:35:14;;;;;;;21.58;11.38;;;;;;;;;;6254866;28;20032;-88
2022/01/10 13:38:15;;;;;;;29.65;14.65;;;;;;;;;;6255125;28;20046;-88
2022/01/10 13:41:15;;;;;;;30.38;14.20;;;;;;;;;;6257564;28;20018;-87
2022/01/10 13:44:15;;;;;;;35.33;14.88;;;;;;;;;;6258365;28;20111;-88
2022/01/10 13:47:16;;;;;;;32.05;12.70;;;;;;;;;;6248762;28;20119;-88
2022/01/10 13:50:18;;;;;;;28.17;14.40;;;;;;;;;;6262611;28;20022;-88
2022/01/10 13:53:29;;;;;;;33.27;13.70;;;;;;;;;;6247414;28;20322;-88
2022/01/10 13:56:30;;;;;;;26.38;12.77;;;;;;;;;;6253238;28;20281;-88
2022/01/10 13:59:31;;;;;;;27.27;12.38;;;;;;;;;;6272512;28;20023;-88
2022/01/10 14:02:41;;;;;;;28.25;13.52;;;;;;;;;;6257818;28;20029;-88
2022/01/10 14:05:41;;;;;;;28.80;11.85;;;;;;;;;;6255228;28;20029;-88
2022/01/10 14:08:52;;;;;;;34.60;15.13;;;;;;;;;;6258745;28;20371;-88
2022/01/10 14:11:53;;;;;;;31.20;13.05;;;;;;;;;;6260620;28;20036;-89
2022/01/10 14:14:54;;;;;;;36.45;12.32;;;;;;;;;;6260028;28;20013;-88
2022/01/10 14:17:55;;;;;;;35.83;14.82;;;;;;;;;;6261024;28;20463;-89
2022/01/10 14:20:56;;;;;;;32.13;14.47;;;;;;;;;;6255704;28;20022;-88
2022/01/10 14:23:56;;;;;;;38.00;15.18;;;;;;;;;;6246125;28;20018;-89
2022/01/10 14:26:56;;;;;;;32.28;13.18;;;;;;;;;;6246054;28;20382;-89
2022/01/10 14:29:57;;;;;;;29.23;11.85;;;;;;;;;;6251415;28;20029;-89
2022/01/10 14:32:58;;;;;;;24.77;11.52;;;;;;;;;;6248192;28;20159;-89
2022/01/10 14:35:58;;;;;;;19.85;8.27;;;;;;;;;;6246183;28;20014;-88
2022/01/10 14:38:58;;;;;;;28.65;11.98;;;;;;;;;;6245615;28;20044;-89
2022/01/10 14:41:59;;;;;;;28.05;13.25;;;;;;;;;;6260402;28;20452;-89
2022/01/10 14:44:59;;;;;;;30.52;13.13;;;;;;;;;;6272062;28;20088;-89
2022/01/10 14:48:00;;;;;;;28.83;13.25;;;;;;;;;;6271026;28;20021;-89
2022/01/10 14:51:02;;;;;;;31.27;16.02;;;;;;;;;;6271993;28;20024;-89
2022/01/10 14:54:02;;;;;;;30.48;13.52;;;;;;;;;;6268087;28;20742;-89
2022/01/10 14:57:03;;;;;;;33.65;15.15;;;;;;;;;;6247707;28;20022;-89
2022/01/10 15:00:06;;;;;;;37.00;17.83;;;;;;;;;;6250843;28;20014;-89
2022/01/10 15:03:06;;;;;;;32.72;15.30;;;;;;;;;;6265825;28;20032;-89
2022/01/10 15:06:10;;;;;;;35.00;16.45;;;;;;;;;;6269828;28;20396;-89
2022/01/10 15:09:10;;;;;;;31.70;14.82;;;;;;;;;;6264580;28;20044;-89
2022/01/10 15:12:11;;;;;;;33.92;14.73;;;;;;;;;;6259424;28;20385;-89
2022/01/10 15:15:11;;;;;;;34.70;16.77;;;;;;;;;;6253186;28;20021;-88
2022/01/10 15:18:12;;;;;;;41.58;16.77;;;;;;;;;;6251540;28;20040;-88
2022/01/10 15:21:14;;;;;;;39.30;16.85;;;;;;;;;;6267262;28;20505;-88
2022/01/10 15:24:15;;;;;;;44.13;19.00;;;;;;;;;;6244867;28;20028;-88
2022/01/10 15:27:16;;;;;;;47.63;20.55;;;;;;;;;;6248393;28;20377;-88
2022/01/10 15:30:17;;;;;;;33.30;14.00;;;;;;;;;;6261166;28;20017;-88
2022/01/10 15:33:17;;;;;;;30.77;14.13;;;;;;;;;;6250528;28;20021;-86
2022/01/10 15:36:17;;;;;;;30.42;13.65;;;;;;;;;;6253305;28;20035;-86
2022/01/10 15:39:18;;;;;;;28.67;14.13;;;;;;;;;;6252800;28;20041;-86
2022/01/10 15:42:18;;;;;;;29.65;12.57;;;;;;;;;;6255665;28;20063;-86
2022/01/10 15:45:18;;;;;;;37.50;14.30;;;;;;;;;;6249919;28;20381;-86
2022/01/10 15:48:19;;;;;;;33.53;14.43;;;;;;;;;;6253001;28;20366;-86
2022/01/10 15:51:19;;;;;;;36.25;15.13;;;;;;;;;;6258333;28;20028;-86
2022/01/10 15:54:20;;;;;;;42.97;19.90;;;;;;;;;;6258361;28;20020;-85
2022/01/10 15:57:20;;;;;;;45.38;20.88;;;;;;;;;;6257228;28;20107;-85
2022/01/10 16:00:20;;;;;;;36.53;17.88;;;;;;;;;;6262232;28;20568;-86
2022/01/10 16:03:21;;;;;;;44.63;18.02;;;;;;;;;;6261556;28;20365;-85
2022/01/10 16:06:21;;;;;;;42.33;18.52;;;;;;;;;;6245317;28;20024;-85
2022/01/10 16:09:21;;;;;;;37.28;17.50;;;;;;;;;;6250608;28;20028;-85
2022/01/10 16:12:22;;;;;;;48.28;21.73;;;;;;;;;;6263749;28;20453;-85
2022/01/10 16:15:23;;;;;;;38.80;18.70;;;;;;;;;;6269444;28;20032;-85
2022/01/10 16:18:25;;;;;;;49.38;21.00;;;;;;;;;;6270922;28;20025;-85
2022/01/10 16:21:25;;;;;;;45.75;20.02;;;;;;;;;;6248198;28;20078;-86
2022/01/10 16:24:25;;;;;;;56.53;24.67;;;;;;;;;;6267347;28;20029;-86
2022/01/10 16:27:26;;;;;;;53.08;22.33;;;;;;;;;;6258672;28;20025;-86
2022/01/10 16:30:27;;;;;;;40.22;17.80;;;;;;;;;;6243462;28;20053;-86
2022/01/10 16:33:27;;;;;;;50.60;19.52;;;;;;;;;;6245379;28;20026;-86
2022/01/10 16:36:28;;;;;;;39.13;16.52;;;;;;;;;;6253797;28;20032;-85
2022/01/10 16:39:28;;;;;;;49.10;20.63;;;;;;;;;;6247663;28;20444;-85
2022/01/10 16:42:29;;;;;;;46.95;18.38;;;;;;;;;;6248702;28;20056;-86
2022/01/10 16:45:29;;;;;;;33.45;15.82;;;;;;;;;;6254470;28;20022;-86
2022/01/10 16:48:32;;;;;;;40.13;18.13;;;;;;;;;;6248646;28;20030;-85
2022/01/10 16:51:32;;;;;;;40.08;16.33;;;;;;;;;;6261260;28;20106;-85
2022/01/10 16:54:32;;;;;;;52.35;22.02;;;;;;;;;;6268175;28;20105;-85
2022/01/10 16:57:32;;;;;;;50.67;23.60;;;;;;;;;;6267653;28;20032;-86
2022/01/10 17:00:33;;;;;;;46.17;18.45;;;;;;;;;;6252567;28;20389;-86
2022/01/10 17:03:33;;;;;;;47.97;21.33;;;;;;;;;;6248561;28;20075;-86
2022/01/10 17:06:34;;;;;;;47.35;21.17;;;;;;;;;;6246966;28;20028;-86
2022/01/10 17:09:34;;;;;;;33.45;16.80;;;;;;;;;;6255028;28;20028;-85
2022/01/10 17:12:35;;;;;;;36.10;16.65;;;;;;;;;;6248946;28;20013;-86
2022/01/10 17:15:35;;;;;;;30.52;15.23;;;;;;;;;;6247973;28;20014;-86
2022/01/10 17:18:35;;;;;;;41.15;18.13;;;;;;;;;;6250595;28;20028;-86
2022/01/10 17:21:36;;;;;;;48.17;20.40;;;;;;;;;;6259472;28;20021;-85
2022/01/10 17:24:36;;;;;;;38.53;17.05;;;;;;;;;;6254385;28;20037;-85
2022/01/10 17:27:39;;;;;;;43.53;19.15;;;;;;;;;;6256025;28;20033;-86
2022/01/10 17:30:40;;;;;;;34.70;16.17;;;;;;;;;;6254149;28;20520;-86
2022/01/10 17:33:40;;;;;;;37.80;17.70;;;;;;;;;;6251126;28;20052;-85
2022/01/10 17:36:40;;;;;;;26.17;12.63;;;;;;;;;;6255926;28;20461;-85
2022/01/10 17:39:41;;;;;;;27.58;12.25;;;;;;;;;;6255969;28;20049;-86
2022/01/10 17:42:43;;;;;;;25.80;11.70;;;;;;;;;;6253092;28;20104;-86